CVG weather

Cincinnati Northern Kentucky International Airport
Cincinnati, Kentucky, United States

Public forecast

Using degrees Fahrenheit for public forecast. Weather courtesy of forecast.io.

Current aviation weather report (METAR) for Cincinnati Northern Kentucky International Airport

Retrieved 2019/10/21 23:52 UTC (12 minutes ago):

KCVG 212352Z 17013KT 8SM -RA SCT090 OVC110 17/14 A2976 RMK AO2 SLP071 P0003 60003 T01720144 10239 20172 53008

Aviation forecast (TAF) for Cincinnati Northern Kentucky International Airport

Retrieved 2019-10-22 00:36 UTC (0 seconds ago):

TAF KCVG 212335Z 2200/2306 19014G25KT P6SM -SHRA OVC060 FM220400 22012G26KT P6SM VCSH OVC035 TEMPO 2204/2207 3SM -SHRA BR OVC025 FM220800 23012KT P6SM SCT060 FM221400 21012G18KT P6SM SKC FM221600 25015G23KT P6SM BKN040